Airfield :
LOGIN :

Register | Disclaimer

   EN    FR    IT 

 










Legend :    VFR   Marginal VFR   IFR   Intensive IFR   Very Intensive IFR
Visi :
Ceiling :
>= 8 km
>= 3000ft
5 to 8 km
1000 to 3000 ft
1500m to 5 km
500 to 1000 ft
800 to 1500m
200 to 500 ft
< 800m
< 200 ft
Symbols :   Thunderstorms  Fog  Heavy snow  Heavy precipitations  Wind > 20 kt
SIGMETs :     Misc.  Thunderstorms  Icing  Turbulence  Mountain Waves  Volcanic Ashes






- Airport Elevation : 314 ft
- IATA code : OTP


LROP - Bucarest - Henri Coanda

CURRENT METAR :
  • 011700Z 25006KT 0400 R08R/0800D R26L/0750N FZFG VV002 M01/M01 Q1024 R08R/19//95 NOSIG

EXPIRED METARs :
  • 011630Z 25006KT 0350 R08R/0800N R26L/0700N FZFG VV001 M01/M01 Q1024 R08R/19//95 NOSIG
  • 011600Z 25007KT 0250 R08R/0550N R26L/0750D FZFG VV001 M01/M01 Q1024 R08R/19//95 NOSIG
  • 011530Z 23004KT 6000 NSC M01/M01 Q1024 R08R/19//95 BECMG 5000 BR
  • 011500Z 24004KT 8000 NSC 00/00 Q1024 R08R/19//95 BECMG 5000 BR
  • 011430Z 24004KT 8000 NSC 01/01 Q1024 R08R/19//95 BECMG 5000 BR

TAF AMD TAF LROP
Valid from the 01 at 15:00 until the 02 at 12:00 UTC


011551Z 0115/0212 VRB04KT 0350 FZFG VV001
TEMPO 0117/0207 0150 FZFG
BECMG 0208/0210 0800 FZFG OVC002
BECMG 0210/0212 3000 BR BKN005



MET'MAP, your aeronautical weather chart ! - Copyright ORBIFLY December 2007 - Disclaimer

ORBIFLY MET'MAP TEAM :

Programming & Development : Alexandra Zaïnal
Concept & original design : Baudouin d'Aumeries
Assistance for programming : Marc-Olivier Méhu
Technical & hardware support : Manuel Goepfert

Contact : metmap@orbifly.com




SOURCES & CREDITS :

   NOAA